createdAt,value
2018-10-05T00:00:24.498Z,33.67
2018-10-05T00:03:03.627Z,33.83
2018-10-05T00:05:40.729Z,33.67
2018-10-05T00:08:19.035Z,34.58
2018-10-05T00:10:56.271Z,33.77
2018-10-05T00:13:33.853Z,33.07
2018-10-05T00:16:13.082Z,34.53
2018-10-05T00:18:52.176Z,34.93
2018-10-05T00:21:31.008Z,40.75
2018-10-05T00:24:09.831Z,35.07
2018-10-05T00:26:47.141Z,33.37
2018-10-05T00:29:23.668Z,31.60
2018-10-05T00:32:02.745Z,33.23
2018-10-05T00:34:32.359Z,35.07
2018-10-05T00:37:01.922Z,32.50
2018-10-05T00:39:31.477Z,35.10
2018-10-05T00:42:01.035Z,35.43
2018-10-05T00:44:30.894Z,33.40
2018-10-05T00:47:00.619Z,33.97
2018-10-05T00:49:30.307Z,34.23
2018-10-05T00:52:00.210Z,35.40
2018-10-05T00:54:29.881Z,34.07
2018-10-05T00:56:59.545Z,33.03
2018-10-05T00:59:29.344Z,35.00
2018-10-05T01:01:59.083Z,34.73
2018-10-05T01:04:28.657Z,32.67
2018-10-05T01:06:58.391Z,34.90
2018-10-05T01:09:28.197Z,34.13
2018-10-05T01:11:57.754Z,33.53
2018-10-05T01:14:27.581Z,34.97
2018-10-05T01:16:57.812Z,33.47
2018-10-05T01:19:27.982Z,33.97
2018-10-05T01:21:57.578Z,32.93
2018-10-05T01:24:27.136Z,32.30
2018-10-05T01:26:56.685Z,34.30
2018-10-05T01:29:26.210Z,33.48
2018-10-05T01:31:55.763Z,32.43
2018-10-05T01:34:25.323Z,33.47
2018-10-05T01:36:54.933Z,35.67
2018-10-05T01:39:24.530Z,33.63
2018-10-05T01:41:54.042Z,35.83
2018-10-05T01:44:23.629Z,32.50
2018-10-05T01:46:53.166Z,32.47
2018-10-05T01:49:22.726Z,33.20
2018-10-05T01:51:52.278Z,33.43
2018-10-05T01:54:22.028Z,34.33
2018-10-05T01:56:51.602Z,34.07
2018-10-05T01:59:21.163Z,32.73
2018-10-05T02:01:50.709Z,35.13
2018-10-05T02:04:20.340Z,34.53
2018-10-05T02:06:49.930Z,33.93
2018-10-05T02:09:19.461Z,34.43
2018-10-05T02:11:49.051Z,33.83
2018-10-05T02:14:18.598Z,33.63
2018-10-05T02:16:48.162Z,35.13
2018-10-05T02:19:17.718Z,34.90
2018-10-05T02:21:47.252Z,33.18
2018-10-05T02:24:16.887Z,31.57
2018-10-05T02:26:46.454Z,34.03
2018-10-05T02:29:16.019Z,32.05
2018-10-05T02:31:45.563Z,32.60
2018-10-05T02:34:15.248Z,33.67
2018-10-05T02:36:44.802Z,32.70
2018-10-05T02:39:14.461Z,33.97
2018-10-05T02:41:44.079Z,33.67
2018-10-05T02:44:13.618Z,34.25
2018-10-05T02:46:43.187Z,33.50
2018-10-05T02:49:12.722Z,32.63
2018-10-05T02:51:42.294Z,33.17
2018-10-05T02:54:11.850Z,32.40
2018-10-05T02:56:41.425Z,32.65
2018-10-05T02:59:10.956Z,31.60
2018-10-05T03:01:57.297Z,38.80
2018-10-05T03:04:26.877Z,34.77
2018-10-05T03:06:56.747Z,32.17
2018-10-05T03:09:26.444Z,34.23
2018-10-05T03:11:55.976Z,32.40
2018-10-05T03:14:25.630Z,32.53
2018-10-05T03:16:55.327Z,34.60
2018-10-05T03:19:25.086Z,33.80
2018-10-05T03:21:54.661Z,33.67
2018-10-05T03:24:24.305Z,34.43
2018-10-05T03:26:54.045Z,36.73
2018-10-05T03:29:23.760Z,32.10
2018-10-05T03:31:53.466Z,31.67
2018-10-05T03:34:23.170Z,34.13
2018-10-05T03:36:52.865Z,32.63
2018-10-05T03:39:22.752Z,34.30
2018-10-05T03:41:52.401Z,32.77
2018-10-05T03:44:22.215Z,34.08
2018-10-05T03:46:51.949Z,32.47
2018-10-05T03:49:25.999Z,34.48
2018-10-05T03:51:55.706Z,32.87
2018-10-05T03:54:26.290Z,33.37
2018-10-05T03:56:56.090Z,33.20
2018-10-05T03:59:25.891Z,32.33
2018-10-05T04:01:55.478Z,33.17
2018-10-05T04:04:25.007Z,31.67
2018-10-05T04:06:54.682Z,34.13
2018-10-05T04:09:24.254Z,31.97
2018-10-05T04:11:53.828Z,34.57
2018-10-05T04:14:23.458Z,32.97
2018-10-05T04:16:53.077Z,32.47
2018-10-05T04:19:22.665Z,32.10
2018-10-05T04:21:52.420Z,31.37
2018-10-05T04:24:22.002Z,34.40
2018-10-05T04:26:51.624Z,32.50
2018-10-05T04:29:21.250Z,31.68
2018-10-05T04:31:50.862Z,31.50
2018-10-05T04:34:20.488Z,29.80
2018-10-05T04:36:50.518Z,30.13
2018-10-05T04:39:20.144Z,31.73
2018-10-05T04:41:50.192Z,30.43
2018-10-05T04:44:19.979Z,31.47
2018-10-05T04:46:49.602Z,31.53
2018-10-05T04:49:19.232Z,32.55
2018-10-05T04:51:48.897Z,31.33
2018-10-05T04:54:18.474Z,31.23
2018-10-05T04:56:48.205Z,30.57
2018-10-05T04:59:17.821Z,31.25
2018-10-05T05:01:47.955Z,32.63
2018-10-05T05:04:17.639Z,30.68
2018-10-05T05:06:47.365Z,32.07
2018-10-05T05:09:17.009Z,30.17
2018-10-05T05:11:46.657Z,29.67
2018-10-05T05:14:16.275Z,31.57
2018-10-05T05:16:45.990Z,28.93
2018-10-05T05:19:15.836Z,28.77
2018-10-05T05:21:45.433Z,29.40
2018-10-05T05:24:15.091Z,29.00
2018-10-05T05:26:47.888Z,29.83
2018-10-05T05:29:17.538Z,26.17
2018-10-05T05:31:47.245Z,29.20
2018-10-05T05:34:19.779Z,27.77
2018-10-05T05:36:52.385Z,29.13
2018-10-05T05:39:21.964Z,27.37
2018-10-05T05:41:51.658Z,29.45
2018-10-05T05:44:21.312Z,27.23
2018-10-05T05:46:50.983Z,27.63
2018-10-05T05:49:20.655Z,26.90
2018-10-05T05:51:50.334Z,28.17
2018-10-05T05:54:19.911Z,27.67
2018-10-05T05:56:49.676Z,27.60
2018-10-05T05:59:19.327Z,28.07
2018-10-05T06:01:59.655Z,28.20
2018-10-05T06:04:29.269Z,26.97
2018-10-05T06:06:58.841Z,25.73
2018-10-05T06:09:28.415Z,24.07
2018-10-05T06:11:58.002Z,26.10
2018-10-05T06:14:27.597Z,24.93
2018-10-05T06:16:57.230Z,22.90
2018-10-05T06:19:26.838Z,24.00
2018-10-05T06:21:56.655Z,23.77
2018-10-05T06:24:26.154Z,24.73
2018-10-05T06:26:55.742Z,23.57
2018-10-05T06:29:25.451Z,22.80
2018-10-05T06:31:55.049Z,23.77
2018-10-05T06:34:24.625Z,22.55
2018-10-05T06:36:54.256Z,24.10
2018-10-05T06:39:23.831Z,24.07
2018-10-05T06:41:53.525Z,24.00
2018-10-05T06:44:23.018Z,23.98
2018-10-05T06:46:52.808Z,22.50
2018-10-05T06:49:22.497Z,29.98
2018-10-05T06:51:52.169Z,25.07
2018-10-05T06:54:21.826Z,23.50
2018-10-05T06:56:51.458Z,23.03
2018-10-05T06:59:21.094Z,25.00
2018-10-05T07:01:50.745Z,25.37
2018-10-05T07:04:20.357Z,24.43
2018-10-05T07:06:49.988Z,22.97
2018-10-05T07:09:19.622Z,23.50
2018-10-05T07:11:49.301Z,22.33
2018-10-05T07:14:18.914Z,22.10
2018-10-05T07:16:48.518Z,22.47
2018-10-05T07:19:18.203Z,22.05
2018-10-05T07:21:47.810Z,23.03
2018-10-05T07:24:18.447Z,21.53
2018-10-05T07:26:48.129Z,20.70
2018-10-05T07:29:17.755Z,22.90
2018-10-05T07:31:47.387Z,21.70
2018-10-05T07:34:16.973Z,21.47
2018-10-05T07:36:46.623Z,21.27
2018-10-05T07:39:16.252Z,22.43
2018-10-05T07:41:45.859Z,22.43
2018-10-05T07:44:15.550Z,22.45
2018-10-05T07:46:45.139Z,21.27
2018-10-05T07:49:14.744Z,21.35
2018-10-05T07:51:44.398Z,21.83
2018-10-05T07:54:13.973Z,21.48
2018-10-05T07:56:43.595Z,20.13
2018-10-05T07:59:13.255Z,21.57
2018-10-05T08:01:42.852Z,21.83
2018-10-05T08:04:12.555Z,20.37
2018-10-05T08:06:42.219Z,20.67
2018-10-05T08:09:12.110Z,20.48
2018-10-05T08:11:41.711Z,21.00
2018-10-05T08:14:11.319Z,21.40
2018-10-05T08:16:41.035Z,20.13
2018-10-05T08:19:10.732Z,18.70
2018-10-05T08:21:40.559Z,19.53
2018-10-05T08:24:10.153Z,19.20
2018-10-05T08:26:39.792Z,20.60
2018-10-05T08:29:09.553Z,20.00
2018-10-05T08:31:39.226Z,18.37
2018-10-05T08:34:09.018Z,19.67
2018-10-05T08:36:38.567Z,18.17
2018-10-05T08:39:10.612Z,19.53
2018-10-05T08:41:40.331Z,19.07
2018-10-05T08:44:10.414Z,18.00
2018-10-05T08:46:41.427Z,18.53
2018-10-05T08:49:11.061Z,17.98
2018-10-05T08:51:40.731Z,19.33
2018-10-05T08:54:10.411Z,18.20
2018-10-05T08:56:40.006Z,18.13
2018-10-05T08:59:09.696Z,19.40
2018-10-05T09:01:39.278Z,18.03
2018-10-05T09:04:08.962Z,16.65
2018-10-05T09:06:38.552Z,15.63
2018-10-05T09:09:08.855Z,16.30
2018-10-05T09:11:38.477Z,15.90
2018-10-05T09:14:08.610Z,15.10
2018-10-05T09:16:38.267Z,15.98
2018-10-05T09:19:07.938Z,14.97
2018-10-05T09:21:37.623Z,14.57
2018-10-05T09:24:07.383Z,14.80
2018-10-05T09:26:36.865Z,13.57
2018-10-05T09:29:06.583Z,14.15
2018-10-05T09:31:36.213Z,13.17
2018-10-05T09:34:13.495Z,12.78
2018-10-05T09:36:43.154Z,13.27
2018-10-05T09:39:12.846Z,12.70
2018-10-05T09:41:42.496Z,12.40
2018-10-05T09:44:12.056Z,11.53
2018-10-05T09:46:41.697Z,11.87
2018-10-05T09:49:11.531Z,12.20
2018-10-05T09:51:41.133Z,10.90
2018-10-05T09:54:10.727Z,11.40
2018-10-05T09:56:40.323Z,11.83
2018-10-05T09:59:09.882Z,11.53
2018-10-05T10:01:44.378Z,11.20
2018-10-05T10:04:13.931Z,11.20
2018-10-05T10:06:43.517Z,13.37
2018-10-05T10:09:13.094Z,11.97
2018-10-05T10:11:42.638Z,11.33
2018-10-05T10:14:12.298Z,11.35
2018-10-05T10:16:41.873Z,11.00
2018-10-05T10:19:11.554Z,10.97
2018-10-05T10:21:41.236Z,10.83
2018-10-05T10:24:10.934Z,11.30
2018-10-05T10:26:40.491Z,10.00
2018-10-05T10:29:10.275Z,10.40
2018-10-05T10:31:39.741Z,10.40
2018-10-05T10:34:09.467Z,10.10
2018-10-05T10:36:39.070Z,10.20
2018-10-05T10:39:09.255Z,10.63
2018-10-05T10:41:38.810Z,9.23
2018-10-05T10:44:08.350Z,9.30
2018-10-05T10:46:37.931Z,10.07
2018-10-05T10:49:08.110Z,9.93
2018-10-05T10:51:37.722Z,10.43
2018-10-05T10:54:07.355Z,10.30
2018-10-05T10:56:36.847Z,10.43
2018-10-05T10:59:06.696Z,9.20
2018-10-05T11:01:36.348Z,9.17
2018-10-05T11:04:06.327Z,8.93
2018-10-05T11:06:35.965Z,9.40
2018-10-05T11:09:08.098Z,8.40
2018-10-05T11:11:37.683Z,9.23
2018-10-05T11:14:07.269Z,8.87
2018-10-05T11:16:36.897Z,8.13
2018-10-05T11:19:06.892Z,8.43
2018-10-05T11:21:36.474Z,8.80
2018-10-05T11:24:06.732Z,8.00
2018-10-05T11:26:36.370Z,8.23
2018-10-05T11:29:06.278Z,8.73
2018-10-05T11:31:36.031Z,9.13
2018-10-05T11:34:06.271Z,9.25
2018-10-05T11:36:35.817Z,8.10
2018-10-05T11:39:07.218Z,8.80
2018-10-05T11:41:37.035Z,8.70
2018-10-05T11:44:06.924Z,9.27
2018-10-05T11:46:36.486Z,8.97
2018-10-05T11:49:06.746Z,8.00
2018-10-05T11:51:36.367Z,8.50
2018-10-05T11:54:06.190Z,9.27
2018-10-05T11:56:35.727Z,9.70
2018-10-05T11:59:06.262Z,8.43
2018-10-05T12:01:35.977Z,8.77
2018-10-05T12:04:06.494Z,8.63
2018-10-05T12:06:36.070Z,8.83
2018-10-05T12:09:08.497Z,8.67
2018-10-05T12:11:38.495Z,9.10
2018-10-05T12:14:08.109Z,8.37
2018-10-05T12:16:37.678Z,8.53
2018-10-05T12:19:07.246Z,8.03
2018-10-05T12:21:36.778Z,8.20
2018-10-05T12:24:06.332Z,8.47
2018-10-05T12:26:35.941Z,9.47
2018-10-05T12:29:06.714Z,9.45
2018-10-05T12:31:36.327Z,8.87
2018-10-05T12:34:06.925Z,8.28
2018-10-05T12:36:36.701Z,9.13
2018-10-05T12:39:08.479Z,8.53
2018-10-05T12:41:38.625Z,9.37
2018-10-05T12:44:08.654Z,8.55
2018-10-05T12:46:38.386Z,8.23
2018-10-05T12:49:08.019Z,7.90
2018-10-05T12:51:37.592Z,8.47
2018-10-05T12:54:07.170Z,9.47
2018-10-05T12:56:36.722Z,7.93
2018-10-05T12:59:06.654Z,8.13
2018-10-05T13:01:36.267Z,8.30
2018-10-05T13:04:06.507Z,7.53
2018-10-05T13:06:36.059Z,7.57
2018-10-05T13:09:08.346Z,7.62
2018-10-05T13:11:38.646Z,6.73
2018-10-05T13:14:08.384Z,7.33
2018-10-05T13:16:37.967Z,6.70
2018-10-05T13:19:07.741Z,6.23
2018-10-05T13:21:37.294Z,5.70
2018-10-05T13:24:06.947Z,6.50
2018-10-05T13:26:36.500Z,5.60
2018-10-05T13:29:06.608Z,6.12
2018-10-05T13:31:36.245Z,6.33
2018-10-05T13:34:06.707Z,6.47
2018-10-05T13:36:36.222Z,6.13
2018-10-05T13:39:09.870Z,6.07
2018-10-05T13:41:39.939Z,6.00
2018-10-05T13:44:09.429Z,6.70
2018-10-05T13:46:39.023Z,6.90
2018-10-05T13:49:08.628Z,6.70
2018-10-05T13:51:38.297Z,6.13
2018-10-05T13:54:07.889Z,6.23
2018-10-05T13:56:37.443Z,6.60
2018-10-05T13:59:07.635Z,7.10
2018-10-05T14:01:37.246Z,6.50
2018-10-05T14:04:06.851Z,7.07
2018-10-05T14:06:36.438Z,6.93
2018-10-05T14:09:10.292Z,6.87
2018-10-05T14:11:39.900Z,7.43
2018-10-05T14:14:09.478Z,6.53
2018-10-05T14:16:38.992Z,6.47
2018-10-05T14:19:08.646Z,7.13
2018-10-05T14:21:38.241Z,6.90
2018-10-05T14:24:07.995Z,6.93
2018-10-05T14:26:37.553Z,6.47
2018-10-05T14:29:07.142Z,6.00
2018-10-05T14:31:36.737Z,7.97
2018-10-05T14:34:06.406Z,7.63
2018-10-05T14:36:36.021Z,6.43
2018-10-05T14:39:08.539Z,6.50
2018-10-05T14:41:38.141Z,6.27
2018-10-05T14:44:07.715Z,6.80
2018-10-05T14:46:37.282Z,6.63
2018-10-05T14:49:06.987Z,5.70
2018-10-05T14:51:36.523Z,5.97
2018-10-05T14:54:06.185Z,6.70
2018-10-05T14:56:35.812Z,6.27
2018-10-05T14:59:06.319Z,5.83
2018-10-05T15:01:35.985Z,6.07
2018-10-05T15:04:06.483Z,7.05
2018-10-05T15:06:36.141Z,6.47
2018-10-05T15:11:29.384Z,6.03
2018-10-05T15:13:58.913Z,5.93
2018-10-05T15:16:28.571Z,6.20
2018-10-05T15:18:58.147Z,5.80
2018-10-05T15:21:27.725Z,6.40
2018-10-05T15:23:57.288Z,6.60
2018-10-05T15:26:26.863Z,6.60
2018-10-05T15:28:56.475Z,5.80
2018-10-05T15:31:26.018Z,6.27
2018-10-05T15:33:55.654Z,6.17
2018-10-05T15:36:25.246Z,6.20
2018-10-05T15:38:54.905Z,6.33
2018-10-05T15:41:24.417Z,5.45
2018-10-05T15:43:53.987Z,5.90
2018-10-05T15:47:13.102Z,5.87
2018-10-05T15:49:43.083Z,5.83
2018-10-05T15:52:12.775Z,5.45
2018-10-05T15:54:42.353Z,5.30
2018-10-05T15:57:11.924Z,5.30
2018-10-05T15:59:41.475Z,5.70
2018-10-05T16:02:11.052Z,5.60
2018-10-05T16:04:40.673Z,6.27
2018-10-05T16:07:10.334Z,6.13
2018-10-05T16:09:39.939Z,6.80
2018-10-05T16:12:09.532Z,6.43
2018-10-05T16:14:39.142Z,6.67
2018-10-05T16:17:08.695Z,6.30
2018-10-05T16:19:38.301Z,7.70
2018-10-05T16:22:07.987Z,7.33
2018-10-05T16:24:41.714Z,6.77
2018-10-05T16:27:11.910Z,6.03
2018-10-05T16:29:41.522Z,7.53
2018-10-05T16:32:11.635Z,7.37
2018-10-05T16:34:41.198Z,7.50
2018-10-05T16:37:10.887Z,7.87
2018-10-05T16:39:40.493Z,7.73
2018-10-05T16:42:10.057Z,7.90
2018-10-05T16:44:39.678Z,8.07
2018-10-05T16:47:09.311Z,8.67
2018-10-05T16:49:39.110Z,8.53
2018-10-05T16:52:08.799Z,7.90
2018-10-05T16:54:38.395Z,7.20
2018-10-05T16:57:07.968Z,9.07
2018-10-05T16:59:37.640Z,7.63
2018-10-05T17:02:07.254Z,8.40
2018-10-05T17:04:36.779Z,8.37
2018-10-05T17:07:06.962Z,9.03
2018-10-05T17:09:36.599Z,8.87
2018-10-05T17:14:28.491Z,10.07
2018-10-05T17:16:58.504Z,9.97
2018-10-05T17:19:28.314Z,10.47
2018-10-05T17:21:58.122Z,11.10
2018-10-05T17:24:28.047Z,11.17
2018-10-05T17:26:57.942Z,12.10
2018-10-05T17:29:27.954Z,12.37
2018-10-05T17:31:57.699Z,12.17
2018-10-05T17:34:27.500Z,14.30
2018-10-05T17:36:57.516Z,12.70
2018-10-05T17:39:27.334Z,13.67
2018-10-05T17:41:57.071Z,12.90
2018-10-05T17:44:26.951Z,14.68
2018-10-05T17:46:56.773Z,14.40
2018-10-05T17:49:26.578Z,13.47
2018-10-05T17:51:56.479Z,14.90
2018-10-05T17:54:26.307Z,14.47
2018-10-05T17:56:56.297Z,13.83
2018-10-05T17:59:26.134Z,14.10
2018-10-05T18:01:56.035Z,13.43
2018-10-05T18:06:56.494Z,14.37
2018-10-05T18:09:26.501Z,15.67
2018-10-05T18:11:56.528Z,14.87
2018-10-05T18:14:26.446Z,15.07
2018-10-05T18:16:56.401Z,14.30
2018-10-05T18:19:26.263Z,14.20
2018-10-05T18:21:56.195Z,14.67
2018-10-05T18:24:26.280Z,15.47
2018-10-05T18:26:56.399Z,17.67
2018-10-05T18:29:26.430Z,17.13
2018-10-05T18:31:56.451Z,17.57
2018-10-05T18:34:26.365Z,17.90
2018-10-05T18:37:13.738Z,18.73
2018-10-05T18:39:43.375Z,16.30
2018-10-05T18:42:13.086Z,19.43
2018-10-05T18:44:42.807Z,18.23
2018-10-05T18:47:12.443Z,18.53
2018-10-05T18:49:42.364Z,18.40
2018-10-05T18:52:11.955Z,20.23
2018-10-05T18:54:41.770Z,18.97
2018-10-05T18:57:20.870Z,19.27
2018-10-05T18:59:50.551Z,17.60
2018-10-05T19:02:20.752Z,15.32
2018-10-05T19:04:50.428Z,18.73
2018-10-05T19:07:20.081Z,19.70
2018-10-05T19:09:49.634Z,20.27
2018-10-05T19:12:19.253Z,22.98
2018-10-05T19:14:48.787Z,21.13
2018-10-05T19:17:18.378Z,20.07
2018-10-05T19:19:48.007Z,20.00
2018-10-05T19:22:17.578Z,20.13
2018-10-05T19:24:47.194Z,19.77
2018-10-05T19:27:16.851Z,18.80
2018-10-05T19:29:46.454Z,20.62
2018-10-05T19:32:16.001Z,20.48
2018-10-05T19:34:45.659Z,21.50
2018-10-05T19:37:15.232Z,22.53
2018-10-05T19:39:45.024Z,22.70
2018-10-05T19:42:14.860Z,23.40
2018-10-05T19:44:44.453Z,20.67
2018-10-05T19:47:14.098Z,23.35
2018-10-05T19:49:43.697Z,22.77
2018-10-05T19:52:13.345Z,21.25
2018-10-05T19:54:43.068Z,21.47
2018-10-05T19:57:12.735Z,23.32
2018-10-05T19:59:42.322Z,23.73
2018-10-05T20:02:12.140Z,24.50
2018-10-05T20:04:41.751Z,22.23
2018-10-05T20:07:11.398Z,23.15
2018-10-05T20:09:41.064Z,24.87
2018-10-05T20:12:10.761Z,23.95
2018-10-05T20:14:40.500Z,20.37
2018-10-05T20:17:10.108Z,22.67
2018-10-05T20:19:39.687Z,20.63
2018-10-05T20:22:09.735Z,20.97
2018-10-05T20:24:39.342Z,22.52
2018-10-05T20:27:08.967Z,21.57
2018-10-05T20:29:38.536Z,17.87
2018-10-05T20:32:08.137Z,21.50
2018-10-05T20:34:37.723Z,23.03
2018-10-05T20:37:07.712Z,24.37
2018-10-05T20:39:37.222Z,23.37
2018-10-05T20:42:06.852Z,23.17
2018-10-05T20:44:36.537Z,21.33
2018-10-05T20:47:06.421Z,21.15
2018-10-05T20:49:36.051Z,24.50
2018-10-05T20:52:06.340Z,22.97
2018-10-05T20:54:35.951Z,23.57
2018-10-05T20:57:06.710Z,22.17
2018-10-05T20:59:36.291Z,19.33
2018-10-05T21:02:06.643Z,23.57
2018-10-05T21:04:37.083Z,25.13
2018-10-05T21:07:07.313Z,22.00
2018-10-05T21:09:37.275Z,23.00
2018-10-05T21:12:07.053Z,21.87
2018-10-05T21:14:37.560Z,20.53
2018-10-05T21:17:07.570Z,22.97
2018-10-05T21:19:37.407Z,20.57
2018-10-05T21:22:07.332Z,23.27
2018-10-05T21:24:37.242Z,24.07
2018-10-05T21:27:07.054Z,21.80
2018-10-05T21:29:36.867Z,20.50
2018-10-05T21:32:10.241Z,22.40
2018-10-05T21:34:40.187Z,18.85
2018-10-05T21:37:10.202Z,17.97
2018-10-05T21:39:40.103Z,17.77
2018-10-05T21:42:10.067Z,21.50
2018-10-05T21:44:39.715Z,20.43
2018-10-05T21:47:09.261Z,21.23
2018-10-05T21:49:38.876Z,18.23
2018-10-05T21:52:08.454Z,19.13
2018-10-05T21:54:38.004Z,17.43
2018-10-05T21:57:07.562Z,23.03
2018-10-05T21:59:37.116Z,23.23
2018-10-05T22:02:06.731Z,21.80
2018-10-05T22:04:36.423Z,19.70
2018-10-05T22:07:07.085Z,18.73
2018-10-05T22:09:36.723Z,20.70
2018-10-05T22:12:06.363Z,21.20
2018-10-05T22:14:35.954Z,24.03
2018-10-05T22:17:06.290Z,24.57
2018-10-05T22:19:35.930Z,22.77
2018-10-05T22:22:06.677Z,23.70
2018-10-05T22:24:36.217Z,24.13
2018-10-05T22:27:06.655Z,23.30
2018-10-05T22:29:36.231Z,24.87
2018-10-05T22:32:07.118Z,21.40
2018-10-05T22:34:36.707Z,20.83
2018-10-05T22:37:06.244Z,20.53
2018-10-05T22:39:35.795Z,21.87
2018-10-05T22:42:06.611Z,25.23
2018-10-05T22:44:36.224Z,28.77
2018-10-05T22:47:06.594Z,28.47
2018-10-05T22:49:36.122Z,25.73
2018-10-05T22:52:06.775Z,24.23
2018-10-05T22:54:36.311Z,24.90
2018-10-05T22:57:06.628Z,26.37
2018-10-05T22:59:36.198Z,26.17
2018-10-05T23:02:13.325Z,27.13
2018-10-05T23:04:51.030Z,23.23
2018-10-05T23:07:29.331Z,24.50
2018-10-05T23:10:07.401Z,24.50
2018-10-05T23:12:45.915Z,26.10
2018-10-05T23:15:22.788Z,20.92
2018-10-05T23:17:59.060Z,26.15
2018-10-05T23:20:38.371Z,25.73
2018-10-05T23:23:17.625Z,27.43
2018-10-05T23:25:56.042Z,25.30
2018-10-05T23:28:30.589Z,24.40
2018-10-05T23:31:10.258Z,27.93
2018-10-05T23:33:47.904Z,24.63
2018-10-05T23:36:25.904Z,24.30
2018-10-05T23:39:04.784Z,23.77
2018-10-05T23:41:44.399Z,21.60
2018-10-05T23:44:23.018Z,23.40
2018-10-05T23:47:04.212Z,26.00
2018-10-05T23:49:42.198Z,24.07
2018-10-05T23:55:25.769Z,25.80
2018-10-05T23:58:04.702Z,21.73
